Time;durP1;ratioP1;P1;durP2;ratioP2;P2;SDS_P1;SDS_P2;PMS_P1;PMS_P2;Temp;Humidity;BMP_temperature;BMP_pressure;BME280_temperature;BME280_humidity;BME280_pressure;Samples;Min_cycle;Max_cycle;Signal;HPM_P1;HPM_P2
2021/12/15 00:01:00;;;;;;;0.80;0.80;;;3.90;99.90;;;;;;5075516;28;20390;-69
2021/12/15 00:03:26;;;;;;;0.40;0.32;;;3.90;99.90;;;;;;5092669;28;20381;-69
2021/12/15 00:05:52;;;;;;;0.40;0.20;;;3.90;99.90;;;;;;5093230;28;20706;-69
2021/12/15 00:08:19;;;;;;;0.40;0.30;;;4.00;99.90;;;;;;5093144;28;20381;-69
2021/12/15 00:10:47;;;;;;;0.65;0.65;;;4.00;99.90;;;;;;5093498;28;20461;-69
2021/12/15 00:13:14;;;;;;;0.60;0.60;;;3.90;99.90;;;;;;5093014;28;20395;-69
2021/12/15 00:15:40;;;;;;;1.10;0.80;;;3.80;99.90;;;;;;5092020;28;20382;-69
2021/12/15 00:18:07;;;;;;;0.40;0.40;;;3.90;99.90;;;;;;5092790;28;20405;-69
2021/12/15 00:20:33;;;;;;;0.40;0.30;;;4.00;99.90;;;;;;5092468;28;20378;-69
2021/12/15 00:22:59;;;;;;;0.80;0.80;;;4.00;99.90;;;;;;5093077;28;20394;-69
2021/12/15 00:25:28;;;;;;;1.30;1.00;;;3.90;99.90;;;;;;5093045;28;20378;-69
2021/12/15 00:27:54;;;;;;;0.40;0.30;;;3.90;99.90;;;;;;5092435;28;20410;-70
2021/12/15 00:30:21;;;;;;;0.40;0.40;;;3.90;99.90;;;;;;5092811;28;20417;-70
2021/12/15 00:32:48;;;;;;;0.40;0.30;;;3.80;99.90;;;;;;5095871;28;20424;-70
2021/12/15 00:35:15;;;;;;;0.40;0.20;;;3.80;99.90;;;;;;5113113;28;20417;-69
2021/12/15 00:37:40;;;;;;;0.60;0.60;;;3.90;99.90;;;;;;5112374;28;20372;-70
2021/12/15 00:40:10;;;;;;;0.50;0.40;;;4.00;99.90;;;;;;5113221;28;20664;-70
2021/12/15 00:42:35;;;;;;;0.40;0.30;;;3.80;99.90;;;;;;5112298;28;20738;-71
2021/12/15 00:45:02;;;;;;;1.00;0.90;;;3.80;99.90;;;;;;5112824;28;20452;-70
2021/12/15 00:47:28;;;;;;;0.80;0.80;;;3.80;99.90;;;;;;5112850;28;20380;-70
2021/12/15 00:49:54;;;;;;;0.40;0.40;;;4.00;99.90;;;;;;5112076;28;20372;-70
2021/12/15 00:52:19;;;;;;;0.80;0.80;;;4.00;99.90;;;;;;5112232;28;20799;-70
2021/12/15 00:54:45;;;;;;;0.40;0.20;;;4.00;99.90;;;;;;5112018;28;20400;-70
2021/12/15 00:57:11;;;;;;;0.40;0.20;;;4.10;99.90;;;;;;5112423;28;20372;-69
2021/12/15 00:59:37;;;;;;;0.40;0.40;;;4.20;99.90;;;;;;5112208;28;20375;-69
2021/12/15 01:02:05;;;;;;;0.80;0.70;;;4.10;99.90;;;;;;5111838;28;20381;-70
2021/12/15 01:04:31;;;;;;;1.30;1.20;;;4.10;99.90;;;;;;5112467;28;20722;-69
2021/12/15 01:07:00;;;;;;;0.40;0.40;;;4.00;99.90;;;;;;5111837;28;20384;-70
2021/12/15 01:09:32;;;;;;;0.40;0.20;;;3.90;99.90;;;;;;5112665;28;20381;-70
2021/12/15 01:19:47;;;;;;;0.60;0.60;;;4.00;99.90;;;;;;5112154;28;20453;-70
2021/12/15 01:20:10;;;;;;;0.40;0.40;;;4.20;99.90;;;;;;5111278;28;20379;-70
2021/12/15 01:22:42;;;;;;;0.60;0.60;;;4.00;99.90;;;;;;5112236;28;20445;-70
2021/12/15 01:25:16;;;;;;;0.60;0.60;;;4.10;99.90;;;;;;5111267;28;20475;-70
2021/12/15 01:27:43;;;;;;;0.40;0.30;;;4.00;99.90;;;;;;5111679;28;20469;-70
2021/12/15 01:30:13;;;;;;;0.50;0.50;;;4.00;99.90;;;;;;5093219;28;20827;-70
2021/12/15 01:32:39;;;;;;;0.63;0.63;;;4.00;99.90;;;;;;5109208;28;20400;-70
2021/12/15 01:35:06;;;;;;;0.40;0.40;;;4.00;99.90;;;;;;5091528;28;20386;-70
2021/12/15 01:37:32;;;;;;;0.90;0.60;;;3.90;99.90;;;;;;5091609;28;20378;-70
2021/12/15 01:39:57;;;;;;;0.40;0.22;;;4.00;99.90;;;;;;5091465;28;20428;-69
2021/12/15 01:42:27;;;;;;;0.50;0.40;;;4.00;99.90;;;;;;5091146;28;20852;-70
2021/12/15 01:47:37;;;;;;;0.60;0.60;;;4.10;99.90;;;;;;5090630;28;20377;-69
2021/12/15 01:50:04;;;;;;;0.40;0.20;;;4.00;99.90;;;;;;5091298;28;20382;-70
2021/12/15 01:52:34;;;;;;;1.40;0.60;;;4.10;99.90;;;;;;5090337;28;20824;-70
2021/12/15 01:55:11;;;;;;;0.40;0.30;;;4.10;99.90;;;;;;5091505;28;20401;-69
2021/12/15 01:57:37;;;;;;;0.40;0.30;;;4.10;99.90;;;;;;5090666;28;20394;-70
2021/12/15 02:00:11;;;;;;;0.40;0.30;;;4.20;99.90;;;;;;5090848;28;20381;-70
2021/12/15 02:02:37;;;;;;;0.80;0.80;;;4.30;99.90;;;;;;5090561;28;20522;-70
2021/12/15 02:05:03;;;;;;;0.40;0.20;;;4.30;99.90;;;;;;5090755;28;20831;-70
2021/12/15 02:07:29;;;;;;;0.40;0.30;;;4.10;99.90;;;;;;5090771;28;20785;-71
2021/12/15 02:12:31;;;;;;;1.30;0.90;;;4.40;99.90;;;;;;5090953;28;20413;-69
2021/12/15 02:14:57;;;;;;;0.40;0.20;;;4.30;99.90;;;;;;5090384;28;20382;-70
2021/12/15 02:17:23;;;;;;;0.40;0.30;;;4.20;99.90;;;;;;5091144;28;20386;-70
2021/12/15 02:19:49;;;;;;;0.40;0.20;;;4.30;99.90;;;;;;5090258;28;20478;-70
2021/12/15 02:22:15;;;;;;;0.40;0.40;;;4.20;99.90;;;;;;5090895;28;20791;-69
2021/12/15 02:24:41;;;;;;;0.80;0.80;;;4.30;99.90;;;;;;5090237;28;20385;-70
2021/12/15 02:27:11;;;;;;;0.45;0.35;;;4.10;99.90;;;;;;5090511;28;20801;-70
2021/12/15 02:29:40;;;;;;;0.80;0.80;;;4.20;99.90;;;;;;5070449;28;20399;-70
2021/12/15 02:35:07;;;;;;;1.30;0.90;;;4.10;99.90;;;;;;5089865;28;20457;-70
2021/12/15 02:37:30;;;;;;;0.60;0.60;;;4.00;99.90;;;;;;5090282;28;20741;-69
2021/12/15 02:40:00;;;;;;;0.40;0.30;;;4.10;99.90;;;;;;5090049;28;20439;-69
2021/12/15 02:42:30;;;;;;;0.60;0.60;;;3.90;99.90;;;;;;5090789;28;20393;-70
2021/12/15 02:44:56;;;;;;;3.10;1.50;;;4.10;99.90;;;;;;5089999;28;20374;-70
2021/12/15 02:47:25;;;;;;;0.50;0.50;;;4.00;99.90;;;;;;5090787;28;20461;-70
2021/12/15 02:49:53;;;;;;;0.50;0.50;;;4.00;99.90;;;;;;5090548;28;20382;-70
2021/12/15 02:52:19;;;;;;;0.40;0.30;;;4.00;99.90;;;;;;5090020;28;20410;-69
2021/12/15 02:54:45;;;;;;;0.40;0.30;;;4.00;99.90;;;;;;5090448;28;20394;-70
2021/12/15 02:57:12;;;;;;;0.40;0.20;;;4.10;99.90;;;;;;5089701;28;20385;-70
2021/12/15 03:00:00;;;;;;;0.40;0.20;;;4.10;99.90;;;;;;5090645;28;20381;-70
2021/12/15 03:07:50;;;;;;;0.90;0.60;;;4.00;99.90;;;;;;5090137;28;20378;-70
2021/12/15 03:15:47;;;;;;;0.60;0.50;;;4.10;99.90;;;;;;5074912;28;20476;-70
2021/12/15 03:18:17;;;;;;;0.40;0.28;;;4.10;99.90;;;;;;5090461;28;20382;-69
2021/12/15 03:21:06;;;;;;;0.40;0.30;;;4.10;99.90;;;;;;5090245;28;20389;-70
2021/12/15 03:23:48;;;;;;;0.40;0.20;;;4.10;99.90;;;;;;5089757;28;20413;-70
2021/12/15 03:26:26;;;;;;;0.40;0.20;;;4.10;99.90;;;;;;5091099;28;20480;-69
2021/12/15 03:34:48;;;;;;;0.40;0.30;;;4.10;99.90;;;;;;5097331;28;20428;-70
2021/12/15 03:39:48;;;;;;;1.60;1.20;;;4.20;99.90;;;;;;5093004;28;20400;-70
2021/12/15 03:42:18;;;;;;;0.40;0.20;;;4.10;99.90;;;;;;5093674;28;20398;-69
2021/12/15 03:44:44;;;;;;;0.80;0.80;;;4.10;99.90;;;;;;5093022;28;20386;-70
2021/12/15 03:47:15;;;;;;;0.60;0.50;;;4.10;99.90;;;;;;5093760;28;20383;-69
2021/12/15 03:49:42;;;;;;;0.40;0.20;;;4.20;99.90;;;;;;5093155;28;20381;-70
2021/12/15 03:52:10;;;;;;;0.40;0.30;;;4.20;99.90;;;;;;5093447;28;20405;-69
2021/12/15 03:54:36;;;;;;;0.40;0.30;;;4.10;99.90;;;;;;5093401;28;20390;-69
2021/12/15 03:57:02;;;;;;;0.40;0.30;;;4.00;99.90;;;;;;5092824;28;20394;-69
2021/12/15 03:59:28;;;;;;;0.90;0.90;;;4.10;99.90;;;;;;5093466;28;20410;-70
2021/12/15 04:01:55;;;;;;;0.40;0.40;;;4.10;99.90;;;;;;5092448;28;20913;-70
2021/12/15 04:04:21;;;;;;;0.40;0.30;;;4.20;99.90;;;;;;5093554;28;20370;-70
2021/12/15 04:06:47;;;;;;;0.40;0.27;;;4.10;99.90;;;;;;5093051;28;20431;-70
2021/12/15 04:09:14;;;;;;;0.40;0.20;;;4.10;99.90;;;;;;5092464;28;20393;-70
2021/12/15 04:11:40;;;;;;;0.40;0.20;;;4.10;99.90;;;;;;5093125;28;20872;-70
2021/12/15 04:14:11;;;;;;;0.40;0.20;;;4.10;99.90;;;;;;5092647;28;20378;-70
2021/12/15 04:19:08;;;;;;;0.40;0.30;;;4.10;99.90;;;;;;5092527;28;20378;-70
2021/12/15 04:21:35;;;;;;;1.80;1.70;;;4.20;99.90;;;;;;5093029;28;20846;-70
2021/12/15 04:24:00;;;;;;;0.40;0.30;;;4.10;99.90;;;;;;5092506;28;20708;-71
2021/12/15 04:26:27;;;;;;;0.40;0.20;;;4.20;99.90;;;;;;5092861;28;20375;-68
2021/12/15 04:28:53;;;;;;;0.40;0.30;;;4.20;99.90;;;;;;5093172;28;20404;-68
2021/12/15 04:31:22;;;;;;;0.40;0.30;;;4.10;99.90;;;;;;5092225;28;20406;-68
2021/12/15 04:33:50;;;;;;;0.40;0.30;;;4.10;99.90;;;;;;5105690;28;20381;-69
2021/12/15 04:36:16;;;;;;;0.40;0.20;;;4.10;99.90;;;;;;5112950;28;20711;-70
2021/12/15 04:38:43;;;;;;;0.40;0.30;;;4.00;99.90;;;;;;5113128;28;20378;-69
2021/12/15 04:41:16;;;;;;;0.40;0.30;;;4.10;99.90;;;;;;5113433;28;20772;-70
2021/12/15 04:43:42;;;;;;;1.10;1.00;;;4.10;99.90;;;;;;5113398;28;20376;-69
2021/12/15 04:46:12;;;;;;;0.40;0.20;;;4.30;99.90;;;;;;5113628;28;20406;-70
2021/12/15 04:48:40;;;;;;;0.40;0.20;;;4.20;99.90;;;;;;5112728;28;20745;-69
2021/12/15 04:51:07;;;;;;;1.10;1.00;;;4.10;99.90;;;;;;5112968;28;20426;-69
2021/12/15 04:53:33;;;;;;;0.40;0.20;;;4.10;99.90;;;;;;5112613;28;20408;-68
2021/12/15 04:55:59;;;;;;;0.50;0.50;;;4.10;99.90;;;;;;5113733;28;20396;-69
2021/12/15 04:58:25;;;;;;;0.50;0.50;;;4.00;99.90;;;;;;5113128;28;20392;-69
2021/12/15 05:00:55;;;;;;;0.40;0.22;;;4.10;99.90;;;;;;5112275;28;20380;-69
2021/12/15 05:03:22;;;;;;;1.10;1.00;;;4.20;99.90;;;;;;5112881;28;20372;-69
2021/12/15 05:05:49;;;;;;;0.40;0.20;;;4.10;99.90;;;;;;5112311;28;20395;-69
2021/12/15 05:08:15;;;;;;;0.60;0.60;;;4.10;99.90;;;;;;5112840;28;20708;-69
2021/12/15 05:10:41;;;;;;;0.40;0.20;;;4.00;99.90;;;;;;5094056;28;20900;-69
2021/12/15 05:13:07;;;;;;;0.40;0.30;;;4.10;99.90;;;;;;5112703;28;20471;-69
2021/12/15 05:15:35;;;;;;;0.40;0.20;;;4.00;99.90;;;;;;5112690;28;20381;-69
2021/12/15 05:18:01;;;;;;;0.40;0.30;;;4.00;99.90;;;;;;5111800;28;20735;-69
2021/12/15 05:20:27;;;;;;;0.40;0.20;;;4.10;99.90;;;;;;5094535;28;20385;-69
2021/12/15 05:22:54;;;;;;;0.40;0.30;;;4.00;99.90;;;;;;5111908;28;20387;-69
2021/12/15 05:25:21;;;;;;;1.00;1.00;;;4.10;99.90;;;;;;5112865;28;20446;-69
2021/12/15 05:27:48;;;;;;;0.70;0.70;;;4.00;99.90;;;;;;5112317;28;20424;-69
2021/12/15 05:30:17;;;;;;;0.40;0.20;;;4.00;99.90;;;;;;5111956;28;20387;-69
2021/12/15 05:32:43;;;;;;;0.40;0.30;;;4.00;99.90;;;;;;5109045;28;20406;-69
2021/12/15 05:35:14;;;;;;;0.40;0.30;;;4.00;99.90;;;;;;5091180;28;20378;-69
2021/12/15 05:37:40;;;;;;;0.40;0.40;;;4.10;99.90;;;;;;5092136;28;20378;-69
2021/12/15 05:40:08;;;;;;;0.50;0.50;;;4.00;99.90;;;;;;5073209;28;20384;-69
2021/12/15 05:42:33;;;;;;;0.40;0.20;;;4.00;99.90;;;;;;5091631;28;20960;-69
2021/12/15 05:44:59;;;;;;;0.40;0.20;;;4.00;99.90;;;;;;5091788;28;20473;-68
2021/12/15 05:47:25;;;;;;;0.40;0.20;;;3.90;99.90;;;;;;5091184;28;20381;-69
2021/12/15 05:49:53;;;;;;;0.40;0.30;;;4.00;99.90;;;;;;5091202;28;20820;-69
2021/12/15 05:52:19;;;;;;;0.50;0.50;;;4.00;99.90;;;;;;5090990;28;20414;-69
2021/12/15 05:54:45;;;;;;;0.40;0.30;;;4.00;99.90;;;;;;5091718;28;20399;-69
2021/12/15 05:57:12;;;;;;;0.40;0.30;;;4.00;99.90;;;;;;5091656;28;20378;-68
2021/12/15 05:59:38;;;;;;;0.40;0.20;;;4.00;99.90;;;;;;5091024;28;20385;-68
2021/12/15 06:02:04;;;;;;;0.40;0.20;;;3.90;99.90;;;;;;5091549;28;20382;-69
2021/12/15 06:04:30;;;;;;;0.40;0.20;;;4.00;99.90;;;;;;5090900;28;20380;-69
2021/12/15 06:06:56;;;;;;;1.10;1.00;;;4.00;99.90;;;;;;5091268;28;20799;-69
2021/12/15 06:09:21;;;;;;;0.40;0.40;;;4.00;99.90;;;;;;5091413;28;20706;-69
2021/12/15 06:11:49;;;;;;;0.40;0.30;;;4.10;99.90;;;;;;5090801;28;20420;-69
2021/12/15 06:14:23;;;;;;;0.40;0.30;;;4.20;99.90;;;;;;5073273;28;20479;-69
2021/12/15 06:16:50;;;;;;;0.40;0.20;;;4.20;99.90;;;;;;5072221;28;20730;-69
2021/12/15 06:19:16;;;;;;;0.60;0.60;;;4.10;99.90;;;;;;5090992;28;20882;-69
2021/12/15 06:21:41;;;;;;;0.60;0.60;;;4.10;99.90;;;;;;5090750;28;20465;-69
2021/12/15 06:24:07;;;;;;;0.40;0.30;;;3.90;99.90;;;;;;5091442;28;20477;-69
2021/12/15 06:26:34;;;;;;;0.40;0.20;;;4.00;99.90;;;;;;5091097;28;20392;-70
2021/12/15 06:29:00;;;;;;;0.40;0.30;;;4.00;99.90;;;;;;5090162;28;20402;-69
2021/12/15 06:31:26;;;;;;;0.40;0.20;;;4.00;99.90;;;;;;5091154;28;20409;-70
2021/12/15 06:33:52;;;;;;;0.40;0.20;;;4.00;99.90;;;;;;5103455;28;20460;-70
2021/12/15 06:36:21;;;;;;;0.40;0.20;;;4.00;99.90;;;;;;5111568;28;20410;-69
2021/12/15 06:38:49;;;;;;;0.40;0.30;;;4.10;99.90;;;;;;5110699;28;20381;-69
2021/12/15 06:41:16;;;;;;;0.40;0.40;;;4.10;99.90;;;;;;5111298;28;20384;-69
2021/12/15 06:43:46;;;;;;;0.40;0.20;;;4.20;99.90;;;;;;5111355;28;20372;-69
2021/12/15 07:00:10;;;;;;;0.40;0.20;;;3.90;99.90;;;;;;5038128;28;20391;-69
2021/12/15 07:02:37;;;;;;;0.40;0.20;;;3.90;99.90;;;;;;5097217;28;20934;-69
2021/12/15 07:05:03;;;;;;;0.40;0.20;;;3.90;99.90;;;;;;5114532;28;20878;-69
2021/12/15 07:07:29;;;;;;;0.40;0.20;;;4.00;99.90;;;;;;5115480;28;20708;-69
2021/12/15 07:09:55;;;;;;;0.40;0.20;;;3.90;99.90;;;;;;5115131;28;20426;-69
2021/12/15 07:12:21;;;;;;;0.40;0.30;;;3.90;99.90;;;;;;5096218;28;20901;-69
2021/12/15 07:14:46;;;;;;;0.40;0.30;;;3.90;99.90;;;;;;5114824;28;20376;-69
2021/12/15 07:17:19;;;;;;;0.40;0.25;;;3.90;99.90;;;;;;5114507;28;20372;-69
2021/12/15 07:20:05;;;;;;;0.40;0.20;;;4.00;99.90;;;;;;5115041;28;20784;-69
2021/12/15 07:22:37;;;;;;;0.40;0.20;;;3.90;99.90;;;;;;5114506;28;21111;-69
2021/12/15 07:25:05;;;;;;;0.40;0.20;;;3.90;99.90;;;;;;5096545;28;20755;-69
2021/12/15 07:27:30;;;;;;;0.40;0.20;;;3.90;99.90;;;;;;5113729;28;20369;-69
2021/12/15 07:29:56;;;;;;;0.70;0.70;;;3.90;99.90;;;;;;5114738;28;20734;-69
2021/12/15 07:32:22;;;;;;;0.40;0.30;;;3.80;99.90;;;;;;5095388;28;20549;-69
2021/12/15 07:34:48;;;;;;;0.40;0.20;;;3.70;99.90;;;;;;5076148;28;20951;-69
2021/12/15 07:37:13;;;;;;;0.40;0.20;;;3.90;99.90;;;;;;5094359;28;20462;-69
2021/12/15 07:39:45;;;;;;;0.60;0.60;;;3.80;99.90;;;;;;5075571;28;20409;-69
2021/12/15 07:42:12;;;;;;;0.40;0.20;;;3.70;99.90;;;;;;5094297;28;20794;-69
2021/12/15 07:44:38;;;;;;;0.40;0.20;;;3.80;99.90;;;;;;5093586;28;20379;-69
2021/12/15 07:47:05;;;;;;;0.40;0.30;;;3.70;99.90;;;;;;5094454;28;20475;-69
2021/12/15 07:49:32;;;;;;;0.40;0.20;;;3.70;99.90;;;;;;5093618;28;20389;-69
2021/12/15 07:52:04;;;;;;;0.40;0.40;;;3.90;99.90;;;;;;5093929;28;20557;-69
2021/12/15 07:54:32;;;;;;;0.40;0.20;;;3.80;99.90;;;;;;5093794;28;20397;-69
2021/12/15 07:56:59;;;;;;;0.40;0.20;;;3.70;99.90;;;;;;5093940;28;20394;-68
2021/12/15 07:59:25;;;;;;;0.50;0.50;;;3.90;99.90;;;;;;5093460;28;20852;-68
2021/12/15 08:01:51;;;;;;;0.40;0.40;;;3.90;99.90;;;;;;5093243;28;20435;-69
2021/12/15 08:04:18;;;;;;;1.70;1.00;;;3.90;99.90;;;;;;5093606;28;20375;-68
2021/12/15 08:06:46;;;;;;;0.50;0.50;;;3.90;99.90;;;;;;5093119;28;20382;-69
2021/12/15 08:09:13;;;;;;;0.40;0.20;;;3.70;99.90;;;;;;5093481;28;20378;-69
2021/12/15 08:11:40;;;;;;;0.40;0.20;;;3.80;99.90;;;;;;5093019;28;20409;-68
2021/12/15 08:14:06;;;;;;;0.50;0.50;;;3.80;99.90;;;;;;5092917;28;20374;-69
2021/12/15 08:16:33;;;;;;;0.40;0.40;;;3.80;99.90;;;;;;5093259;28;20386;-69
2021/12/15 08:18:59;;;;;;;0.50;0.50;;;3.80;99.90;;;;;;5092531;28;20389;-69
2021/12/15 08:21:25;;;;;;;0.40;0.20;;;3.90;99.90;;;;;;5093247;28;20378;-69
2021/12/15 08:23:51;;;;;;;0.40;0.20;;;4.00;99.90;;;;;;5093049;28;20530;-68
2021/12/15 08:26:17;;;;;;;0.60;0.60;;;4.00;99.90;;;;;;5074665;28;20447;-69
2021/12/15 08:28:43;;;;;;;0.60;0.50;;;4.00;99.90;;;;;;5093191;28;20489;-69
2021/12/15 08:31:09;;;;;;;0.60;0.50;;;4.00;99.90;;;;;;5092192;28;20877;-69
2021/12/15 08:33:36;;;;;;;0.40;0.20;;;4.00;99.90;;;;;;5103680;28;20451;-69
2021/12/15 08:36:06;;;;;;;0.50;0.50;;;4.00;99.90;;;;;;5113306;28;20727;-69
2021/12/15 08:38:34;;;;;;;0.90;0.90;;;4.00;99.90;;;;;;5113567;28;20377;-69
2021/12/15 08:41:04;;;;;;;0.40;0.30;;;3.90;99.90;;;;;;5112958;28;20846;-69
2021/12/15 08:43:30;;;;;;;0.40;0.20;;;3.90;99.90;;;;;;5112859;28;20644;-70
2021/12/15 08:46:05;;;;;;;0.40;0.30;;;3.90;99.90;;;;;;5113568;28;20368;-70
2021/12/15 08:48:33;;;;;;;0.82;0.82;;;3.90;99.90;;;;;;5112822;28;20372;-70
2021/12/15 08:51:00;;;;;;;0.40;0.22;;;3.90;99.90;;;;;;5113079;28;20377;-69
2021/12/15 08:53:26;;;;;;;0.40;0.20;;;3.90;99.90;;;;;;5112574;28;20376;-70
2021/12/15 08:55:52;;;;;;;0.40;0.30;;;4.00;99.90;;;;;;5112689;28;20420;-70
2021/12/15 08:58:20;;;;;;;0.40;0.30;;;4.00;99.90;;;;;;5113170;28;20408;-70
2021/12/15 09:00:50;;;;;;;0.40;0.30;;;4.10;99.90;;;;;;5112321;28;20418;-70
2021/12/15 09:03:17;;;;;;;1.10;0.80;;;4.10;99.90;;;;;;5112955;28;20415;-70
2021/12/15 09:05:44;;;;;;;0.40;0.20;;;4.00;99.90;;;;;;5112402;28;20738;-70
2021/12/15 09:08:12;;;;;;;0.90;0.50;;;4.20;99.90;;;;;;5113001;28;20381;-70
2021/12/15 09:10:40;;;;;;;1.00;0.80;;;4.00;99.90;;;;;;5112020;28;20376;-70
2021/12/15 09:13:08;;;;;;;0.40;0.30;;;4.10;99.90;;;;;;5112470;28;20408;-70
2021/12/15 09:15:34;;;;;;;0.40;0.30;;;4.20;99.90;;;;;;5112579;28;20381;-70
2021/12/15 09:18:00;;;;;;;1.30;1.10;;;4.30;99.90;;;;;;5112087;28;20372;-70
2021/12/15 09:20:30;;;;;;;0.40;0.20;;;4.20;99.90;;;;;;5112542;28;20775;-70
2021/12/15 09:22:58;;;;;;;0.40;0.30;;;4.00;99.90;;;;;;5112268;28;20452;-70
2021/12/15 09:25:24;;;;;;;0.40;0.20;;;4.20;99.90;;;;;;5093859;28;20427;-70
2021/12/15 09:27:51;;;;;;;0.40;0.20;;;4.10;99.90;;;;;;5112225;28;20403;-70
2021/12/15 09:30:20;;;;;;;0.80;0.80;;;4.20;99.90;;;;;;5112341;28;20377;-70
2021/12/15 09:32:47;;;;;;;0.40;0.20;;;4.20;99.90;;;;;;5108704;28;20448;-70
2021/12/15 09:35:15;;;;;;;0.40;0.30;;;4.20;99.90;;;;;;5091691;28;20744;-70
2021/12/15 09:37:41;;;;;;;0.40;0.30;;;4.30;99.90;;;;;;5092245;28;20879;-70
2021/12/15 09:40:10;;;;;;;0.40;0.20;;;4.40;99.90;;;;;;5091225;28;20378;-70
2021/12/15 09:42:39;;;;;;;0.40;0.30;;;4.30;99.90;;;;;;5091592;28;20470;-70
2021/12/15 09:45:23;;;;;;;0.40;0.20;;;4.40;99.90;;;;;;5091783;28;20378;-70
2021/12/15 10:04:27;;;;;;;0.40;0.20;;;4.60;99.90;;;;;;5091621;28;20728;-70
2021/12/15 10:12:28;;;;;;;0.40;0.20;;;4.60;99.90;;;;;;5091202;28;20467;-70
2021/12/15 10:18:08;;;;;;;0.40;0.30;;;4.60;99.90;;;;;;5090547;28;20476;-70
2021/12/15 10:20:38;;;;;;;0.40;0.30;;;4.60;99.90;;;;;;5091350;28;20477;-70
2021/12/15 10:23:08;;;;;;;0.40;0.30;;;4.50;99.90;;;;;;5090760;28;20374;-70
2021/12/15 10:25:38;;;;;;;0.40;0.30;;;4.60;99.90;;;;;;5091298;28;20394;-70
2021/12/15 10:28:13;;;;;;;0.40;0.30;;;4.50;99.90;;;;;;5090497;28;20876;-70
2021/12/15 10:30:47;;;;;;;0.40;0.30;;;4.50;99.90;;;;;;5091273;28;20409;-70
2021/12/15 10:33:21;;;;;;;0.50;0.50;;;4.60;99.90;;;;;;5090428;28;20753;-70
2021/12/15 10:35:50;;;;;;;0.60;0.50;;;4.70;99.90;;;;;;5090686;28;20932;-70
2021/12/15 10:38:30;;;;;;;0.40;0.30;;;4.40;99.90;;;;;;5090810;28;20406;-70
2021/12/15 10:41:04;;;;;;;0.63;0.43;;;4.50;99.90;;;;;;5090043;28;20389;-72
2021/12/15 10:43:56;;;;;;;0.40;0.30;;;4.60;99.90;;;;;;5091148;28;20380;-70
2021/12/15 10:46:28;;;;;;;0.40;0.20;;;4.50;99.90;;;;;;5090206;28;20382;-70
2021/12/15 10:49:05;;;;;;;0.40;0.30;;;4.60;99.90;;;;;;5091236;28;20767;-70
2021/12/15 10:51:51;;;;;;;0.40;0.20;;;4.60;99.90;;;;;;5090980;28;20813;-68
2021/12/15 10:54:28;;;;;;;0.47;0.47;;;4.60;99.90;;;;;;5075949;28;20398;-70
2021/12/15 10:57:08;;;;;;;0.40;0.40;;;4.50;99.90;;;;;;5091110;28;20378;-69
2021/12/15 10:59:40;;;;;;;0.40;0.20;;;4.50;99.90;;;;;;5091341;28;20394;-69
2021/12/15 11:02:16;;;;;;;0.40;0.30;;;4.40;99.90;;;;;;5090828;28;20389;-69
2021/12/15 11:04:46;;;;;;;0.40;0.30;;;4.40;99.90;;;;;;5072780;28;20397;-69
2021/12/15 11:07:30;;;;;;;0.60;0.60;;;4.50;99.90;;;;;;5090075;28;20389;-71
2021/12/15 11:09:59;;;;;;;0.40;0.22;;;4.40;99.90;;;;;;5090621;28;20401;-69
2021/12/15 11:12:31;;;;;;;0.47;0.47;;;4.40;99.90;;;;;;5090118;28;20876;-69
2021/12/15 11:15:09;;;;;;;0.40;0.40;;;4.50;99.90;;;;;;5090425;28;20832;-69
2021/12/15 11:17:47;;;;;;;0.40;0.20;;;4.60;99.90;;;;;;5089967;28;20370;-68
2021/12/15 11:20:38;;;;;;;0.40;0.40;;;4.50;99.90;;;;;;5090715;28;20416;-68
2021/12/15 11:23:07;;;;;;;0.40;0.20;;;4.50;99.90;;;;;;5090590;28;20382;-68
2021/12/15 11:25:58;;;;;;;0.40;0.20;;;4.40;99.90;;;;;;5089782;28;20390;-69
2021/12/15 11:28:43;;;;;;;0.40;0.30;;;4.50;99.90;;;;;;5090740;28;20493;-68
2021/12/15 11:31:11;;;;;;;0.40;0.20;;;4.50;99.90;;;;;;5090520;28;20400;-68
2021/12/15 11:33:48;;;;;;;0.40;0.30;;;4.70;99.90;;;;;;5100624;28;20381;-68
2021/12/15 11:36:13;;;;;;;0.40;0.20;;;4.60;99.90;;;;;;5110768;28;20385;-68
2021/12/15 11:38:43;;;;;;;0.40;0.30;;;4.60;99.90;;;;;;5110442;28;20814;-68
2021/12/15 11:41:11;;;;;;;0.40;0.30;;;4.50;99.90;;;;;;5110547;28;20855;-68
2021/12/15 11:43:39;;;;;;;1.40;1.20;;;4.50;99.90;;;;;;5110332;28;20376;-69
2021/12/15 11:46:26;;;;;;;0.40;0.25;;;4.40;99.90;;;;;;5110953;28;20862;-68
2021/12/15 11:49:00;;;;;;;0.40;0.20;;;4.50;99.90;;;;;;5113684;28;20839;-68
2021/12/15 11:51:48;;;;;;;1.50;0.90;;;4.50;99.90;;;;;;5114339;28;20411;-68
2021/12/15 11:54:16;;;;;;;0.40;0.30;;;4.50;99.90;;;;;;5114389;28;20389;-68
2021/12/15 11:56:42;;;;;;;0.40;0.30;;;4.60;99.90;;;;;;5114118;28;20484;-68
2021/12/15 11:59:35;;;;;;;0.40;0.30;;;4.30;99.90;;;;;;5113750;28;20468;-68
2021/12/15 12:02:21;;;;;;;0.50;0.50;;;4.30;99.90;;;;;;5113561;28;20471;-68
2021/12/15 12:04:55;;;;;;;0.47;0.45;;;4.40;99.90;;;;;;5114277;28;20387;-68
2021/12/15 12:07:30;;;;;;;0.40;0.20;;;4.40;99.90;;;;;;5114131;28;20376;-69
2021/12/15 12:10:05;;;;;;;0.70;0.50;;;4.40;99.90;;;;;;5113060;28;20433;-70
2021/12/15 12:12:47;;;;;;;0.57;0.47;;;4.40;99.90;;;;;;5113840;28;20440;-70
2021/12/15 12:15:14;;;;;;;0.40;0.20;;;4.60;99.90;;;;;;5113459;28;20496;-70
2021/12/15 12:17:43;;;;;;;0.40;0.30;;;4.60;99.90;;;;;;5113748;28;20449;-70
2021/12/15 12:20:30;;;;;;;0.40;0.30;;;4.50;99.90;;;;;;5113366;28;20408;-70
2021/12/15 12:22:59;;;;;;;0.40;0.20;;;4.50;99.90;;;;;;5113704;28;20377;-70
2021/12/15 12:25:29;;;;;;;0.40;0.20;;;4.60;99.90;;;;;;5113243;28;20475;-70
2021/12/15 12:27:56;;;;;;;0.40;0.25;;;4.70;99.90;;;;;;5113495;28;20781;-70
2021/12/15 12:30:38;;;;;;;0.40;0.30;;;4.70;99.90;;;;;;5113181;28;20376;-70
2021/12/15 12:33:09;;;;;;;0.40;0.30;;;4.70;99.90;;;;;;5113489;28;20410;-70
2021/12/15 12:35:40;;;;;;;1.50;0.70;;;4.60;99.90;;;;;;5113623;28;20373;-69
2021/12/15 12:38:20;;;;;;;1.45;1.35;;;4.80;99.90;;;;;;5113493;28;20422;-69
2021/12/15 12:40:51;;;;;;;0.40;0.40;;;4.70;99.90;;;;;;5113249;28;20372;-69
2021/12/15 12:43:38;;;;;;;0.50;0.50;;;4.70;99.90;;;;;;5112438;28;20376;-70
2021/12/15 13:00:19;;;;;;;0.60;0.60;;;4.60;99.90;;;;;;5113149;28;20498;-70
2021/12/15 13:02:55;;;;;;;1.00;1.00;;;4.70;99.90;;;;;;5112402;28;20389;-70
2021/12/15 13:05:55;;;;;;;0.40;0.30;;;4.80;99.90;;;;;;5113048;28;20444;-70
2021/12/15 13:08:43;;;;;;;0.45;0.43;;;4.90;99.90;;;;;;5108497;28;20400;-70
2021/12/15 13:11:22;;;;;;;0.40;0.20;;;4.90;99.90;;;;;;5112740;28;20387;-70
2021/12/15 13:14:03;;;;;;;0.40;0.40;;;4.80;99.90;;;;;;5112200;28;20385;-70
2021/12/15 13:16:49;;;;;;;1.10;0.80;;;4.80;99.90;;;;;;5112739;28;20425;-70
2021/12/15 13:19:40;;;;;;;0.40;0.20;;;4.90;99.90;;;;;;5112629;28;20372;-70
2021/12/15 13:30:33;;;;;;;0.40;0.30;;;4.80;99.90;;;;;;5112296;28;20380;-70
2021/12/15 13:33:12;;;;;;;0.40;0.30;;;4.90;99.90;;;;;;5106201;28;20527;-70
2021/12/15 13:35:57;;;;;;;1.20;1.10;;;4.90;99.90;;;;;;5091831;28;20413;-70
2021/12/15 13:38:43;;;;;;;0.40;0.40;;;4.90;99.90;;;;;;5092202;28;20723;-70
2021/12/15 13:41:44;;;;;;;0.40;0.20;;;4.90;99.90;;;;;;5091433;28;20384;-70
2021/12/15 13:44:30;;;;;;;0.40;0.20;;;4.80;99.90;;;;;;5090389;28;20880;-70
2021/12/15 13:46:58;;;;;;;0.40;0.40;;;4.80;99.90;;;;;;5091226;28;20367;-70
2021/12/15 13:49:45;;;;;;;0.60;0.60;;;4.80;99.90;;;;;;5091745;28;20524;-70
2021/12/15 13:52:26;;;;;;;0.70;0.60;;;4.70;99.90;;;;;;5091166;28;20405;-70
2021/12/15 13:54:58;;;;;;;0.40;0.20;;;4.80;99.90;;;;;;5091848;28;20401;-70
2021/12/15 13:57:33;;;;;;;0.40;0.20;;;4.80;99.90;;;;;;5091920;28;20443;-70
2021/12/15 14:00:18;;;;;;;0.50;0.47;;;4.80;99.90;;;;;;5091716;28;20418;-70
2021/12/15 14:03:05;;;;;;;0.40;0.30;;;4.90;99.90;;;;;;5091683;28;20412;-70
2021/12/15 14:06:04;;;;;;;0.40;0.30;;;4.90;99.90;;;;;;5091437;28;20500;-70
2021/12/15 14:08:48;;;;;;;0.40;0.30;;;4.90;99.90;;;;;;5091453;28;20405;-70
2021/12/15 14:11:20;;;;;;;0.40;0.30;;;4.80;99.90;;;;;;5090117;28;20583;-70
2021/12/15 14:14:03;;;;;;;0.40;0.30;;;4.90;99.90;;;;;;5091317;28;20386;-71
2021/12/15 14:16:38;;;;;;;0.40;0.30;;;4.90;99.90;;;;;;5090720;28;20392;-70
2021/12/15 14:19:08;;;;;;;0.40;0.20;;;4.90;99.90;;;;;;5091260;28;20401;-69
2021/12/15 14:21:36;;;;;;;0.40;0.20;;;4.90;99.90;;;;;;5090264;28;20378;-70
2021/12/15 14:24:02;;;;;;;0.55;0.55;;;4.80;99.90;;;;;;5090912;28;20472;-70
2021/12/15 14:26:33;;;;;;;0.40;0.30;;;4.70;99.90;;;;;;5090660;28;20390;-70
2021/12/15 14:29:08;;;;;;;0.40;0.20;;;4.70;99.90;;;;;;5090551;28;20919;-70
2021/12/15 14:31:37;;;;;;;0.93;0.93;;;4.80;99.90;;;;;;5090475;28;20530;-70
2021/12/15 14:34:21;;;;;;;0.40;0.20;;;4.90;99.90;;;;;;5087114;28;20389;-70
2021/12/15 14:36:56;;;;;;;0.40;0.20;;;4.90;99.90;;;;;;5112029;28;20384;-70
2021/12/15 14:39:28;;;;;;;0.40;0.40;;;4.90;99.90;;;;;;5111015;28;20405;-70
2021/12/15 14:42:01;;;;;;;0.40;0.20;;;4.90;99.90;;;;;;5111584;28;20377;-70
2021/12/15 14:44:30;;;;;;;0.40;0.30;;;5.00;99.90;;;;;;5110298;28;20368;-70
2021/12/15 14:47:02;;;;;;;0.40;0.30;;;5.00;99.90;;;;;;5111583;28;20376;-70
2021/12/15 14:49:41;;;;;;;0.40;0.22;;;4.80;99.90;;;;;;5111076;28;20384;-71
2021/12/15 14:52:21;;;;;;;0.40;0.20;;;4.80;99.90;;;;;;5108348;28;20402;-70